CLASSEMENT SCRATCH DU 9850m
Arv Arv
Sexe
Doss Nom Prénom Club Nat. Nais Cat. Cls Temps
1 1 749 Westenhoeffer Fabrice Espace Marathon 1970 SEM 1 0:33:00
1 1 1401 Nerding Rainer TV Hatzenbühl 1968 SEM 1 0:33:00
3 1 600 GRESSOT Georges ASL Robertsau 1962 V1M 1 0:33:54
4 3 1386 Huss David ANA Sgw 1976 SEM 3 0:34:20
5 4 607 MEYER Pascal ANA-RAC Wissembourg 1968 SEM 4 0:34:51
6 5 589 LAPP Freddy RT Schweighouse 1966 SEM 5 0:35:20
7 6 591 GERVAIS Pascal ANA SG La Wantzenau 1969 SEM 6 0:35:20
8 2 588 KNAUB Roland LA SALINE 1958 V1M 2 0:35:37
9 7 637 CONSTANZER Emmanuel Liebherr Colmar 1971 SEM 7 0:35:42
10 8 1399 Boellinger Jerôme TV Bad Bergzabern 1978 SEM 8 0:36:04
11 9 671 Kernacker Eric ANA/SGW 1973 SEM 9 0:36:11
12 3 635 FREIS Francis ASC Strasbourg 1962 V1M 3 0:36:20
13 10 630 ERHARDT Gerd SV Freistett 1973 SEM 10 0:36:27
14 4 667 Basch Raymond ANA/LAC 1954 V2M 1 0:36:32
15 11 644 CLAUSS Olivier CE BURSTNER 1980 SEM 11 0:36:42
16 5 1388 Huss Mario ANA SG Wantzenau 1955 V1M 4 0:36:46
17 12 1381 Gutzler Karlheinz LG Kreis Dachau 1968 SEM 12 0:36:47
18 6 1400 Eisenmann Gerd TUS Schaidt 1959 V1M 5 0:36:48
19 13 619 LUHMANN Christophe CAN Sarreguemines 1967 SEM 13 0:36:51
20 14 658 WEBER Marc ANA/SGW 1967 SEM 14 0:36:53
21 7 810 Hetzel Albert Isri France 1962 V1M 6 0:37:03
22 8 806 Souihi Mbareck Ibal 1958 V1M 7 0:37:08
23 9 640 WALTZ Armand CE BURSTNER 1960 V1M 8 0:37:08
24 15 581 NEVES José Carlos LA SALINE 1965 SEM 15 0:37:11
25 10 809 Cailteaux Christophe ASC Balan 1962 V1M 9 0:37:15
26 16 750 Zimmermann Yannick ANA Fch 1982 SEM 16 0:37:18
27 11 1382 Bohlender Dieter TV Hatzenbühl 1957 V1M 10 0:38:44
28 12 812 Simon Patrick ANA Sgw 1961 V1M 11 0:39:03
29 13 751 Grüger Walter SC Önsbach 1955 V1M 12 0:39:09
30 14 1395 Gauter Yves AS ST Sylvain 1952 V2M 2 0:39:15
31 15 742 Martin Serge US Chonge Jogging 1956 V1M 13 0:39:16
32 16 1403 Corbisez J Marie Forbach 1962 V1M 14 0:39:18
33 17 804 Leipner Detlef TV Bad Bergzabern 1965 SEM 17 0:39:28
34 17 679 Schimpf Werner TV Bad-Bergzabern 1946 V2M 3 0:39:32
35 18 585 ZINCK Ralph RT Schweighouse 1969 SEM 18 0:39:46
36 18 818 Wagner Rene Courir A Hasselfurth 1960 V1M 15 0:39:46
37 19 753 Herrmann Christophe Wissembourg 1963 V1M 16 0:40:06
38 20 672 Neichel Marcel LA SALINE 1962 V1M 17 0:40:10
39 21 665 FABRE Mario US Gazelec Ile de France 1959 V1M 18 0:40:31
40 22 638 SCHWOOB Alexandre Oxygene 1950 V2M 4 0:40:36
41 19 842 Chatelain Freddy ANA FCJAB 1975 SEM 19 0:41:00
42 20 596 BOCH Benjamin FFSU 1984 SEM 20 0:41:00
43 21 1384 Hahn Emmanuel AS Electricite 1969 SEM 21 0:41:06
44 22 1393 Hatterer Vincent Hoenheim 1972 SEM 22 0:41:11
45 23 606 JUNG Philippe ASPTT Strasbourg 1947 V2M 5 0:41:14
46 23 599 BRESCH Christian Breuschwickersheim 1971 SEM 23 0:41:17
47 24 655 TISSOT Nicolas AS Electricité Strasbourg 1974 SEM 24 0:41:19
48 24 1383 Schweitzer Michel Vendenheim 1958 V1M 19 0:41:19
49 25 652 NEICHEL Martin LA SALINE 1955 V1M 20 0:41:23
50 26 642 BAYER Jean-Georges CE BURSTNER 1963 V1M 21 0:41:29
51 25 847 Soualmia Cedric SP Metz 1978 SEM 25 0:41:31
52 27 625 HALTER Serge ASL ROBERTSAU 1961 V1M 22 0:41:36
53 28 745 Heymes Christian C Omnisport Insming 1964 V1M 23 0:41:37
54 29 597 WEISS Lucien RT Schweighouse 1949 V2M 6 0:41:40
55 26 1405 Schwartzmuller Vincent Courir A Hasselfurth 1975 SEM 26 0:41:41
56 1 1396 Heckel Brahim Ana 1989 JUM 1 0:41:43
57 27 587 BOEHRINGER Alain AS LEMBACH Judo 1967 SEM 27 0:41:45
58 30 1404 Corbisez Patrick Forbach 1963 V1M 24 0:41:51
59 28 746 Heisser Eric Lingolsheim 1970 SEM 28 0:41:55
60 31 636 JARIN Gérard ANA/FCH 1947 V2M 7 0:42:09
61 32 743 De Paepe Michel SC Abbeville Athletisme 1952 V2M 8 0:42:10
62 29 748 Walther Eric US Schleithal 1975 SEM 29 0:42:11
63 33 584 SEITZ Hervé S P  Schleithal 1964 V1M 25 0:42:17
64 30 816 Kuhn Christophe Berstett 1967 SEM 30 0:42:31
65 31 601 MESSNER Christian Soutz S/Forêts 1970 SEM 31 0:42:43
66 32 670 Neu Gilles Lemberg 1982 SEM 32 0:42:50
67 33 578 Le Mestre Yannig Wissembourg 1973 SEM 33 0:42:54
68 34 615 BIERLING Petrick CE SNCF 1958 V1M 26 0:43:01
69 35 843 Pons Philippe ASPTT 1964 V1M 27 0:43:07
70 36 844 Fatoux Christian ASPTT 1957 V1M 28 0:43:10
71 34 1391 Labbe Thierry Vosges DU Nord Hb 1974 SEM 34 0:43:24
72 35 602 STIEBER Christian OH Morsbronn 1967 SEM 35 0:43:30
73 37 752 Bertsch Dieter LG Hardt 1938 V3M 1 0:43:32
74 36 846 Greiner David VN Handball 1974 SEM 36 0:43:47
75 37 1390 Steinmetz Florence RT Schweighouse 1971 SEF 1 0:43:49
76 38 590 GUY Alain Still 1948 V2M 9 0:43:57
77 38 645 BURCK Sébastien CE BURSTNER 1977 SEM 37 0:44:08
78 39 1397 Thenard Christian Drusenheim 1965 SEM 38 0:44:26
79 40 605 STEPHAN Jean-Michel ASG Gunther Tools 1979 SEM 39 0:44:27
80 39 845 Steyer Vincent Mutzig 1964 V1M 29 0:44:31
81 41 609 NAEGELY Marc COOP ALSACE 1965 SEM 40 0:44:31
82 42 669 Nicabou Steve Strasbourg 1968 SEM 41 0:44:36
83 43 1394 Goberville Frederic Griesheim /souffel 1977 SEM 42 0:44:37
84 40 656 EISENECKER André 1940 V3M 2 0:44:49
85 41 608 LINDER Thierry Badminton 1964 V1M 30 0:45:02
86 44 1392 Froeliger Frederic LA Wantzenau 1978 SEM 43 0:45:06
87 42 617 DAVID Colette FFESSM 1947 V2F 1 0:45:10
88 43 628 LUFTNER Wolfgang SV Freistett 1959 V1M 31 0:45:18
89 44 744 Bouloc Yves ANA Aba 1963 V1M 32 0:45:25
90 45 661 GEBHART Jean-Claude CE Hôpital Haguenau 1964 V1M 33 0:45:33
91 45 677 Stieg Freddy LA SALINE 1965 SEM 44 0:45:41
92 46 676 Schilling Denis FC Altenstadt 1968 SEM 45 0:46:07
93 46 807 Gross Jacques Coop Alsace 1948 V2M 10 0:46:24
94 47 624 MEYER Claude Wissembourg 1977 SEM 46 0:46:29
95 48 668 Garcia Christophe Cayenne 1969 SEM 47 0:46:33
96 49 646 ARNHOLT J-Michel CE BURSTNER 1970 SEM 48 0:46:39
97 47 1385 Hodapp Jean-Marie Haguenau 1957 V1M 34 0:46:52
98 50 659 WOLFF Christophe CE Hôpital Haguenau 1966 SEM 49 0:46:56
99 51 634 STRASSER Pascal ANA/LAC 1967 SEM 50 0:46:57
100 52 803 Leipner Claudia TV Bad Bergzabern 1971 SEF 2 0:47:01
101 48 817 Lux Monique ANA SG La Wantzenau 1953 V2F 2 0:47:07
102 53 610 MATZ Marc CE SNCF 1966 SEM 51 0:47:08
103 49 595 BOCH Eddy Saverne 1949 V2M 11 0:47:16
104 50 598 STUTZMANN Monique ASL ROBERTSAU 1962 V1F 1 0:47:36
105 51 805 Kurtz Jean-Claude Afcf 1949 V2M 12 0:47:37
106 54 643 MEYER Fabien CE BURSTNER 1969 SEM 52 0:47:41
107 52 622 ROOS Christiane ASL ROBERTSAU 1950 V2F 3 0:47:41
108 53 623 LARTIGUE Delphine ASL ROBERTSAU 1963 V1F 2 0:47:46
109 54 808 Weisse Henri Wissembourg 1955 V1M 35 0:47:53
110 55 675 Spieser Jean-Paul CSL Neuf-Brisach 1963 V1M 36 0:47:53
111 55 627 DUSCH Werner SV Freistett 1967 SEM 53 0:47:54
112 56 580 MEIER Dominique Rohan Athlétisme Saverne 1962 V1M 37 0:48:47
113 57 1406 Simon Pierre 1960 V1M 38 0:48:53
114 58 673 Labarelle Marc AS Lauterbourg 1964 V1M 39 0:48:54
115 56 604 MORI Martin Kutzenhausen 1979 SEM 54 0:48:59
116 57 1398 Dapp Isabelle Drusenheim 1966 SEF 3 0:49:05
117 58 654 CORDIER Marie-Laure ANA/LAC 1970 SEF 4 0:49:17
118 59 577 Jacob Andre Seebach 1953 V2M 13 0:49:35
119 59 1402 Gerber Jürgen TV Bad-Bergzabern 1968 SEM 55 0:49:59
120 60 815 Jung Edith ASPTT Strasbourg 1949 V2F 4 0:50:06
121 61 811 Savy Frantz FC Altenstadt 1955 V1M 40 0:50:15
122 60 813 Criqui Laurent Wissembourg 1967 SEM 56 0:50:16
123 62 612 GOETZ Raymond CE SNCF 1950 V2M 14 0:50:18
124 63 592 HOFFMANN Ingrid TV Offenbach 1942 V3F 1 0:50:37
125 64 629 WALTER Katarina SV Freistett 1964 V1F 3 0:50:52
126 65 626 GUCKERT Charles Schleithal 1941 V3M 3 0:50:54
127 61 648 MIEGER Eric CE BURSTNER 1971 SEM 57 0:51:06
128 62 647 MIEGER Laurent CE BURSTNER 1966 SEM 58 0:51:06
129 63 641 HITSCHLER Sébastien CE BURSTNER 1981 SEM 59 0:51:24
130 66 603 BURKART Josef Strasbourg 1952 V2M 15 0:51:28
131 67 678 Sommer Madeleine OH Morsbronn 1954 V2F 5 0:51:38
132 68 662 RIEGER Elisabeth CE Hôpital Haguenau 1957 V1F 4 0:51:47
133 64 660 VANSTEELANT Fabrice CE Hôpital Haguenau 1966 SEM 60 0:51:47
134 69 674 Klag Egon LLG Drei Buchen 1950 V2M 16 0:53:16
135 65 621 BOYER Serge Haguenau 1967 SEM 61 0:53:21
136 70 631 BAUTZ Mounira SV Freistett 1954 V2F 6 0:53:51
137 66 1389 Rosenfelder Emmanuel OH Morsbonn 1974 SEM 62 0:54:09
138 71 614 ZIMPFER Marie-Anne CE SNCF 1960 V1F 5 0:54:21
139 72 747 Braun Arthur LG Weinstrasse 1950 V2M 17 0:54:55
140 67 849 Kunz Claudia TV Wingeln 1972 SEF 5 0:55:24
141 73 653 SUSS Etienne OH Morsbronn 1939 V3M 4 0:57:07
142 74 616 MEYERS Della IBAL 1960 V1F 6 0:58:04
143 68 848 Ostermann Frederic CA Obernai 1973 SEM 63 0:58:06
144 69 651 GERHARDY Sylvie AFCF ALSACE 1970 SEF 6 0:58:30
145 75 639 OHRU Claude Climbach 1962 V1M 41 1:03:48
146 70 583 RIEU Denis Chatillon 1966 SEM 64 1:05:11
147 71 632 ROUCH Vincent Strasbourg 1970 SEM 65 1:07:52
148 72 650 WALTHER Pascal Rhinau 1966 SEM 66 1:11:22
149 76 814 Olbrechts Albert Lauftreff Ettlingen 1915 V3M 5 1:16:32